createdAt,value
2019-02-18T00:00:13.915Z,55.33
2019-02-18T00:02:44.109Z,62.73
2019-02-18T00:05:12.602Z,59.07
2019-02-18T00:07:40.326Z,59.03
2019-02-18T00:10:07.409Z,56.90
2019-02-18T00:12:34.687Z,66.10
2019-02-18T00:15:02.520Z,53.60
2019-02-18T00:17:30.541Z,54.53
2019-02-18T00:19:57.613Z,61.20
2019-02-18T00:22:24.879Z,64.43
2019-02-18T00:24:53.040Z,60.97
2019-02-18T00:27:20.125Z,60.67
2019-02-18T00:29:48.109Z,54.63
2019-02-18T00:32:15.202Z,57.57
2019-02-18T00:34:42.771Z,60.87
2019-02-18T00:37:09.842Z,52.73
2019-02-18T00:39:37.057Z,57.73
2019-02-18T00:42:04.899Z,55.17
2019-02-18T00:44:33.692Z,53.07
2019-02-18T00:47:01.166Z,56.30
2019-02-18T00:49:28.593Z,48.70
2019-02-18T00:51:55.668Z,58.50
2019-02-18T00:54:23.107Z,52.73
2019-02-18T00:56:51.071Z,62.33
2019-02-18T00:59:18.833Z,56.77
2019-02-18T01:01:46.902Z,56.37
2019-02-18T01:04:14.342Z,60.80
2019-02-18T01:06:42.027Z,58.80
2019-02-18T01:09:11.835Z,56.33
2019-02-18T01:11:39.600Z,62.30
2019-02-18T01:14:07.804Z,52.30
2019-02-18T01:16:34.880Z,57.33
2019-02-18T01:19:02.478Z,48.07
2019-02-18T01:21:30.174Z,58.30
2019-02-18T01:23:57.602Z,64.70
2019-02-18T01:26:25.030Z,58.27
2019-02-18T01:28:52.080Z,48.83
2019-02-18T01:31:19.197Z,59.27
2019-02-18T01:33:46.277Z,54.30
2019-02-18T01:36:14.460Z,58.33
2019-02-18T01:38:41.532Z,50.83
2019-02-18T01:41:08.956Z,53.47
2019-02-18T01:43:37.827Z,56.83
2019-02-18T01:46:05.079Z,56.30
2019-02-18T01:48:33.201Z,54.07
2019-02-18T01:51:00.298Z,52.73
2019-02-18T01:53:28.461Z,48.40
2019-02-18T01:55:55.550Z,54.13
2019-02-18T01:58:22.626Z,49.90
2019-02-18T02:00:50.471Z,50.20
2019-02-18T02:03:18.233Z,51.10
2019-02-18T02:05:46.004Z,59.13
2019-02-18T02:08:13.814Z,48.30
2019-02-18T02:10:41.274Z,49.87
2019-02-18T02:13:37.450Z,53.97
2019-02-18T02:16:10.154Z,45.10
2019-02-18T02:18:38.409Z,46.67
2019-02-18T02:21:06.898Z,51.63
2019-02-18T02:23:35.073Z,47.20
2019-02-18T02:26:02.568Z,50.90
2019-02-18T02:28:29.921Z,47.40
2019-02-18T02:31:01.039Z,50.83
2019-02-18T02:33:31.347Z,47.30
2019-02-18T02:35:58.947Z,47.70
2019-02-18T02:38:26.668Z,48.10
2019-02-18T02:40:54.745Z,49.73
2019-02-18T02:43:22.451Z,53.33
2019-02-18T02:45:50.470Z,51.50
2019-02-18T02:48:18.855Z,51.57
2019-02-18T02:50:46.516Z,51.33
2019-02-18T02:53:14.275Z,51.40
2019-02-18T02:55:41.643Z,51.43
2019-02-18T02:58:09.051Z,45.80
2019-02-18T03:00:37.179Z,51.13
2019-02-18T03:03:04.618Z,43.00
2019-02-18T03:05:32.274Z,49.53
2019-02-18T03:08:00.039Z,49.30
2019-02-18T03:10:27.238Z,48.00
2019-02-18T03:12:54.656Z,51.17
2019-02-18T03:15:23.842Z,50.00
2019-02-18T03:17:51.606Z,50.03
2019-02-18T03:20:18.974Z,44.97
2019-02-18T03:22:46.041Z,57.90
2019-02-18T03:25:16.274Z,47.60
2019-02-18T03:27:45.427Z,42.37
2019-02-18T03:30:49.696Z,51.10
2019-02-18T03:33:21.095Z,45.43
2019-02-18T03:35:48.863Z,46.33
2019-02-18T03:38:16.326Z,41.97
2019-02-18T03:40:43.684Z,41.97
2019-02-18T03:43:11.330Z,47.60
2019-02-18T03:45:38.422Z,49.90
2019-02-18T03:48:05.472Z,41.57
2019-02-18T03:50:32.515Z,38.60
2019-02-18T03:52:59.899Z,42.83
2019-02-18T03:55:27.289Z,45.50
2019-02-18T03:57:54.473Z,40.37
2019-02-18T04:00:21.797Z,44.63
2019-02-18T04:02:48.863Z,48.40
2019-02-18T04:05:16.202Z,50.27
2019-02-18T04:07:43.957Z,48.10
2019-02-18T04:10:11.413Z,41.73
2019-02-18T04:12:38.579Z,44.03
2019-02-18T04:15:08.238Z,40.33
2019-02-18T04:17:37.065Z,46.77
2019-02-18T04:20:04.730Z,38.47
2019-02-18T04:22:32.697Z,43.40
2019-02-18T04:25:00.347Z,45.57
2019-02-18T04:27:27.713Z,45.23
2019-02-18T04:29:55.066Z,47.57
2019-02-18T04:32:22.932Z,42.63
2019-02-18T04:34:50.706Z,45.23
2019-02-18T04:37:19.176Z,44.33
2019-02-18T04:39:47.066Z,45.73
2019-02-18T04:42:16.243Z,46.43
2019-02-18T04:44:44.107Z,40.97
2019-02-18T04:47:11.461Z,42.53
2019-02-18T04:49:38.852Z,43.03
2019-02-18T04:52:07.607Z,49.87
2019-02-18T04:54:34.973Z,38.47
2019-02-18T04:57:02.314Z,41.43
2019-02-18T04:59:29.971Z,42.57
2019-02-18T05:01:57.009Z,44.77
2019-02-18T05:04:24.093Z,47.90
2019-02-18T05:06:52.391Z,52.60
2019-02-18T05:09:19.435Z,43.63
2019-02-18T05:11:47.411Z,39.50
2019-02-18T05:14:14.504Z,48.03
2019-02-18T05:16:41.573Z,44.67
2019-02-18T05:19:10.465Z,45.90
2019-02-18T05:21:38.630Z,45.63
2019-02-18T05:24:05.823Z,47.63
2019-02-18T05:26:33.268Z,45.07
2019-02-18T05:29:00.463Z,46.10
2019-02-18T05:31:29.301Z,45.43
2019-02-18T05:33:56.380Z,40.63
2019-02-18T05:36:23.442Z,53.03
2019-02-18T05:38:50.612Z,52.57
2019-02-18T05:41:17.644Z,77.67
2019-02-18T05:43:44.726Z,57.17
2019-02-18T05:46:12.059Z,55.63
2019-02-18T05:48:39.518Z,46.70
2019-02-18T05:51:06.972Z,43.63
2019-02-18T05:53:35.867Z,45.73
2019-02-18T05:56:03.244Z,41.87
2019-02-18T05:58:30.390Z,49.13
2019-02-18T06:00:59.357Z,39.47
2019-02-18T06:03:26.439Z,43.67
2019-02-18T06:05:53.499Z,40.77
2019-02-18T06:08:21.225Z,42.20
2019-02-18T06:10:48.531Z,41.20
2019-02-18T06:13:15.663Z,52.77
2019-02-18T06:15:42.768Z,47.00
2019-02-18T06:18:09.796Z,45.33
2019-02-18T06:20:36.874Z,50.63
2019-02-18T06:23:03.966Z,47.60
2019-02-18T06:25:31.439Z,49.93
2019-02-18T06:27:58.478Z,39.10
2019-02-18T06:30:25.556Z,48.80
2019-02-18T06:32:52.612Z,44.57
2019-02-18T06:35:19.696Z,40.27
2019-02-18T06:37:47.854Z,46.07
2019-02-18T06:40:14.906Z,35.80
2019-02-18T06:42:41.988Z,36.40
2019-02-18T06:45:35.097Z,39.23
2019-02-18T06:48:32.085Z,49.27
2019-02-18T06:50:59.797Z,47.63
2019-02-18T06:53:27.251Z,42.00
2019-02-18T06:55:54.917Z,44.37
2019-02-18T06:58:49.099Z,41.80
2019-02-18T07:01:29.355Z,39.27
2019-02-18T07:04:13.225Z,35.70
2019-02-18T07:07:09.944Z,36.80
2019-02-18T07:10:03.305Z,40.00
2019-02-18T07:12:50.629Z,39.10
2019-02-18T07:15:18.092Z,46.67
2019-02-18T07:17:45.743Z,41.60
2019-02-18T07:20:13.117Z,41.80
2019-02-18T07:22:41.262Z,44.80
2019-02-18T07:25:09.146Z,38.90
2019-02-18T07:27:37.303Z,48.23
2019-02-18T07:30:07.182Z,40.90
2019-02-18T07:32:34.580Z,39.23
2019-02-18T07:35:01.632Z,39.77
2019-02-18T07:37:29.563Z,37.10
2019-02-18T07:40:01.499Z,40.43
2019-02-18T07:42:26.405Z,42.90
2019-02-18T07:44:53.454Z,30.80
2019-02-18T07:47:20.525Z,41.83
2019-02-18T07:49:47.906Z,46.27
2019-02-18T07:52:14.962Z,36.40
2019-02-18T07:54:42.039Z,38.70
2019-02-18T07:57:09.212Z,39.00
2019-02-18T07:59:36.262Z,35.47
2019-02-18T08:02:05.182Z,44.00
2019-02-18T08:04:36.474Z,40.23
2019-02-18T08:07:03.830Z,38.70
2019-02-18T08:09:32.005Z,43.37
2019-02-18T08:11:59.053Z,36.07
2019-02-18T08:14:26.094Z,38.40
2019-02-18T08:16:54.447Z,39.23
2019-02-18T08:19:23.281Z,43.50
2019-02-18T08:21:50.358Z,40.73
2019-02-18T08:24:17.403Z,43.07
2019-02-18T08:26:44.480Z,41.53
2019-02-18T08:29:11.523Z,38.73
2019-02-18T08:31:39.686Z,37.63
2019-02-18T08:34:06.738Z,39.73
2019-02-18T08:36:33.930Z,41.70
2019-02-18T08:39:01.040Z,41.37
2019-02-18T08:41:31.301Z,41.93
2019-02-18T08:43:59.389Z,39.37
2019-02-18T08:46:26.458Z,43.07
2019-02-18T08:48:53.507Z,41.03
2019-02-18T08:51:20.570Z,40.00
2019-02-18T08:53:47.991Z,37.30
2019-02-18T08:56:15.173Z,38.67
2019-02-18T08:58:42.693Z,38.57
2019-02-18T09:01:10.126Z,42.73
2019-02-18T09:03:41.858Z,40.00
2019-02-18T09:06:08.953Z,41.30
2019-02-18T09:08:36.371Z,39.07
2019-02-18T09:11:05.010Z,36.00
2019-02-18T09:13:32.495Z,40.47
2019-02-18T09:16:00.586Z,45.63
2019-02-18T09:18:29.066Z,43.20
2019-02-18T09:20:56.498Z,51.60
2019-02-18T09:24:02.258Z,40.63
2019-02-18T09:26:30.330Z,40.37
2019-02-18T09:29:03.752Z,37.83
2019-02-18T09:31:33.430Z,42.70
2019-02-18T09:34:01.098Z,36.80
2019-02-18T09:36:29.987Z,39.07
2019-02-18T09:38:57.183Z,44.97
2019-02-18T09:41:26.338Z,39.77
2019-02-18T09:43:54.104Z,38.17
2019-02-18T09:46:21.583Z,41.50
2019-02-18T09:48:50.035Z,36.70
2019-02-18T09:51:18.516Z,43.27
2019-02-18T09:53:45.607Z,39.63
2019-02-18T09:56:13.052Z,39.73
2019-02-18T09:58:40.089Z,33.30
2019-02-18T10:01:07.836Z,32.93
2019-02-18T10:03:35.801Z,36.77
2019-02-18T10:06:03.463Z,37.50
2019-02-18T10:08:30.882Z,33.93
2019-02-18T10:10:58.582Z,35.97
2019-02-18T10:13:26.072Z,35.53
2019-02-18T10:15:55.254Z,35.00
2019-02-18T10:18:23.710Z,40.80
2019-02-18T10:20:52.119Z,39.03
2019-02-18T10:23:19.764Z,45.07
2019-02-18T10:25:46.825Z,36.60
2019-02-18T10:28:14.155Z,34.77
2019-02-18T10:30:41.640Z,36.80
2019-02-18T10:33:08.978Z,33.80
2019-02-18T10:35:36.161Z,32.63
2019-02-18T10:38:03.779Z,37.87
2019-02-18T10:40:31.149Z,34.97
2019-02-18T10:42:58.191Z,30.87
2019-02-18T10:45:25.443Z,28.87
2019-02-18T10:47:53.663Z,39.17
2019-02-18T10:50:20.697Z,37.80
2019-02-18T10:52:47.740Z,39.20
2019-02-18T10:55:15.400Z,37.43
2019-02-18T10:57:42.741Z,33.83
2019-02-18T11:00:10.669Z,39.93
2019-02-18T11:02:38.941Z,35.60
2019-02-18T11:05:06.997Z,31.70
2019-02-18T11:07:34.213Z,34.77
2019-02-18T11:10:03.988Z,37.10
2019-02-18T11:12:32.369Z,36.63
2019-02-18T11:14:59.852Z,46.50
2019-02-18T11:17:26.918Z,37.20
2019-02-18T11:19:54.037Z,35.43
2019-02-18T11:22:21.891Z,34.33
2019-02-18T11:24:49.564Z,35.80
2019-02-18T11:27:16.592Z,40.90
2019-02-18T11:29:44.379Z,38.00
2019-02-18T11:32:12.890Z,36.23
2019-02-18T11:34:41.531Z,38.60
2019-02-18T11:37:09.601Z,33.77
2019-02-18T11:39:37.262Z,30.73
2019-02-18T11:42:04.619Z,39.60
2019-02-18T11:44:32.075Z,31.40
2019-02-18T11:46:59.450Z,33.07
2019-02-18T11:49:26.490Z,30.93
2019-02-18T11:51:54.138Z,27.97
2019-02-18T11:54:21.214Z,42.43
2019-02-18T11:56:49.238Z,32.97
2019-02-18T11:59:24.026Z,36.67
2019-02-18T12:01:46.032Z,36.43
2019-02-18T12:04:13.485Z,31.93
2019-02-18T12:06:40.830Z,35.50
2019-02-18T12:09:08.505Z,33.50
2019-02-18T12:14:05.857Z,33.50
2019-02-18T12:16:33.515Z,37.60
2019-02-18T12:19:01.487Z,29.37
2019-02-18T12:21:28.842Z,37.70
2019-02-18T12:23:56.239Z,27.77
2019-02-18T12:26:23.680Z,27.97
2019-02-18T12:28:51.518Z,26.70
2019-02-18T12:31:18.938Z,35.73
2019-02-18T12:33:46.375Z,37.67
2019-02-18T12:36:13.461Z,32.33
2019-02-18T12:38:41.155Z,36.70
2019-02-18T12:41:08.929Z,28.23
2019-02-18T12:43:36.669Z,32.57
2019-02-18T12:46:04.060Z,29.63
2019-02-18T12:48:31.477Z,31.73
2019-02-18T12:50:58.917Z,27.40
2019-02-18T12:53:25.974Z,32.23
2019-02-18T12:55:53.046Z,37.73
2019-02-18T12:58:21.216Z,33.63
2019-02-18T13:00:49.488Z,30.40
2019-02-18T13:03:16.571Z,30.23
2019-02-18T13:05:43.943Z,31.57
2019-02-18T13:08:12.793Z,29.70
2019-02-18T13:10:39.876Z,30.97
2019-02-18T13:13:07.503Z,26.33
2019-02-18T13:15:35.879Z,26.10
2019-02-18T13:20:31.400Z,29.67
2019-02-18T13:23:00.393Z,28.40
2019-02-18T13:25:29.090Z,32.30
2019-02-18T13:27:57.382Z,32.67
2019-02-18T13:30:24.453Z,30.17
2019-02-18T13:32:52.650Z,32.13
2019-02-18T13:35:21.130Z,31.60
2019-02-18T13:37:48.501Z,31.40
2019-02-18T13:40:15.895Z,38.47
2019-02-18T13:42:44.746Z,34.23
2019-02-18T13:45:12.103Z,25.33
2019-02-18T13:47:39.863Z,30.57
2019-02-18T13:50:07.387Z,35.87
2019-02-18T13:52:34.775Z,27.73
2019-02-18T13:55:02.541Z,29.97
2019-02-18T13:57:29.703Z,26.63
2019-02-18T13:59:57.055Z,37.20
2019-02-18T14:02:24.336Z,38.40
2019-02-18T14:04:51.909Z,30.37
2019-02-18T14:07:19.081Z,31.67
2019-02-18T14:09:47.225Z,23.10
2019-02-18T14:12:16.364Z,29.40
2019-02-18T14:14:43.325Z,32.30
2019-02-18T14:17:10.680Z,26.83
2019-02-18T14:19:37.879Z,39.83
2019-02-18T14:22:06.876Z,30.73
2019-02-18T14:24:33.927Z,31.80
2019-02-18T14:27:05.567Z,34.33
2019-02-18T14:29:32.631Z,31.63
2019-02-18T14:32:01.529Z,34.37
2019-02-18T14:34:29.070Z,34.43
2019-02-18T14:36:56.104Z,29.60
2019-02-18T14:39:25.195Z,36.57
2019-02-18T14:41:54.049Z,39.00
2019-02-18T14:44:21.188Z,27.20
2019-02-18T14:46:48.757Z,28.13
2019-02-18T14:49:18.778Z,27.03
2019-02-18T14:51:46.437Z,37.23
2019-02-18T14:54:15.224Z,36.03
2019-02-18T14:56:42.577Z,28.00
2019-02-18T14:59:09.939Z,28.37
2019-02-18T15:01:37.393Z,29.90
2019-02-18T15:04:05.561Z,29.07
2019-02-18T15:06:33.222Z,28.80
2019-02-18T15:09:00.885Z,29.70
2019-02-18T15:11:28.858Z,30.30
2019-02-18T15:13:56.215Z,29.93
2019-02-18T15:16:25.298Z,31.03
2019-02-18T15:18:53.413Z,26.83
2019-02-18T15:21:20.468Z,31.40
2019-02-18T15:23:47.915Z,26.27
2019-02-18T15:26:15.339Z,32.70
2019-02-18T15:28:42.482Z,32.97
2019-02-18T15:31:09.549Z,22.17
2019-02-18T15:33:37.802Z,26.37
2019-02-18T15:36:04.873Z,35.23
2019-02-18T15:38:32.026Z,33.23
2019-02-18T15:40:59.387Z,32.90
2019-02-18T15:43:26.818Z,40.40
2019-02-18T15:45:53.941Z,29.07
2019-02-18T15:48:21.501Z,33.83
2019-02-18T15:50:48.598Z,29.07
2019-02-18T15:53:16.054Z,32.97
2019-02-18T15:55:43.111Z,31.60
2019-02-18T15:58:11.502Z,37.20
2019-02-18T16:00:38.810Z,34.83
2019-02-18T16:03:06.422Z,38.57
2019-02-18T16:05:34.034Z,40.97
2019-02-18T16:08:01.692Z,40.60
2019-02-18T16:10:29.455Z,36.63
2019-02-18T16:12:56.810Z,40.77
2019-02-18T16:15:24.777Z,34.67
2019-02-18T16:17:52.135Z,29.17
2019-02-18T16:20:20.000Z,32.80
2019-02-18T16:22:47.582Z,31.40
2019-02-18T16:25:18.097Z,33.10
2019-02-18T16:27:45.548Z,43.80
2019-02-18T16:30:13.012Z,33.90
2019-02-18T16:32:40.688Z,43.37
2019-02-18T16:35:08.378Z,41.07
2019-02-18T16:37:36.122Z,38.07
2019-02-18T16:40:04.328Z,30.73
2019-02-18T16:42:33.287Z,37.17
2019-02-18T16:45:00.776Z,39.30
2019-02-18T16:47:29.411Z,38.43
2019-02-18T16:49:56.531Z,39.80
2019-02-18T16:52:24.744Z,51.10
2019-02-18T16:54:52.120Z,42.00
2019-02-18T16:57:21.285Z,41.07
2019-02-18T16:59:49.039Z,39.17
2019-02-18T17:02:16.432Z,39.43
2019-02-18T17:04:44.373Z,40.37
2019-02-18T17:07:11.761Z,39.37
2019-02-18T17:09:38.814Z,38.57
2019-02-18T17:12:05.951Z,49.40
2019-02-18T17:14:33.025Z,36.97
2019-02-18T17:17:00.073Z,42.13
2019-02-18T17:19:27.486Z,45.87
2019-02-18T17:21:55.535Z,53.10
2019-02-18T17:24:22.644Z,46.23
2019-02-18T17:26:52.089Z,53.70
2019-02-18T17:29:19.588Z,51.30
2019-02-18T17:31:48.444Z,41.73
2019-02-18T17:34:15.521Z,40.10
2019-02-18T17:36:42.971Z,42.60
2019-02-18T17:39:10.051Z,46.30
2019-02-18T17:41:37.207Z,41.10
2019-02-18T17:44:04.998Z,40.33
2019-02-18T17:46:32.357Z,57.10
2019-02-18T17:48:59.431Z,60.97
2019-02-18T17:51:27.064Z,51.23
2019-02-18T17:53:55.134Z,62.70
2019-02-18T17:56:23.208Z,51.93
2019-02-18T17:58:51.626Z,52.00
2019-02-18T18:01:19.869Z,56.70
2019-02-18T18:03:47.522Z,57.23
2019-02-18T18:06:15.043Z,59.30
2019-02-18T18:08:43.540Z,57.53
2019-02-18T18:11:11.037Z,53.13
2019-02-18T18:13:38.088Z,57.47
2019-02-18T18:16:05.156Z,50.10
2019-02-18T18:18:32.690Z,53.43
2019-02-18T18:20:59.782Z,50.47
2019-02-18T18:23:26.815Z,48.63
2019-02-18T18:25:53.862Z,49.20
2019-02-18T18:28:21.515Z,53.40
2019-02-18T18:30:50.061Z,61.40
2019-02-18T18:33:19.869Z,65.53
2019-02-18T18:35:47.444Z,55.67
2019-02-18T18:38:14.595Z,68.43
2019-02-18T18:40:41.663Z,55.27
2019-02-18T18:43:08.747Z,68.80
2019-02-18T18:45:37.458Z,63.77
2019-02-18T18:48:05.035Z,58.00
2019-02-18T18:50:32.714Z,57.30
2019-02-18T18:53:00.366Z,58.10
2019-02-18T18:55:28.003Z,54.40
2019-02-18T18:57:56.568Z,52.40
2019-02-18T19:00:23.804Z,58.27
2019-02-18T19:02:51.212Z,62.70
